Time;durP1;ratioP1;P1;durP2;ratioP2;P2;SDS_P1;SDS_P2;PMS_P1;PMS_P2;Temp;Humidity;BMP_temperature;BMP_pressure;BME280_temperature;BME280_humidity;BME280_pressure;Samples;Min_cycle;Max_cycle;Signal;HPM_P1;HPM_P2
2022/01/01 00:01:56;;;;;;;104.85;16.55;;;9.00;99.90;;;;;;5005658;28;20088;-70
2022/01/01 00:04:22;;;;;;;106.63;13.88;;;9.00;99.90;;;;;;5003423;28;20081;-70
2022/01/01 00:06:47;;;;;;;101.03;14.95;;;9.10;99.90;;;;;;5009280;28;20485;-70
2022/01/01 00:09:13;;;;;;;87.22;10.80;;;9.10;99.90;;;;;;5002223;28;20481;-70
2022/01/01 00:11:39;;;;;;;98.65;14.30;;;9.10;99.90;;;;;;5066339;23;20050;-74
2022/01/01 00:14:04;;;;;;;83.40;12.90;;;9.20;99.90;;;;;;5022762;28;20026;-76
2022/01/01 00:16:30;;;;;;;86.25;11.48;;;9.20;99.90;;;;;;5023896;28;20045;-76
2022/01/01 00:18:55;;;;;;;81.78;11.45;;;9.30;99.90;;;;;;5027002;28;20025;-77
2022/01/01 00:21:21;;;;;;;84.00;11.30;;;9.20;99.90;;;;;;5033650;28;20029;-77
2022/01/01 00:23:47;;;;;;;82.32;11.65;;;9.30;99.90;;;;;;5025546;28;20030;-77
2022/01/01 00:26:12;;;;;;;88.82;11.18;;;9.30;99.90;;;;;;5026511;28;20476;-78
2022/01/01 00:28:38;;;;;;;86.25;10.05;;;9.50;99.90;;;;;;5028443;28;20013;-77
2022/01/01 00:31:05;;;;;;;73.03;11.13;;;9.30;99.90;;;;;;5022331;28;20029;-77
2022/01/01 00:33:31;;;;;;;97.38;12.13;;;9.30;99.90;;;;;;5027284;28;20026;-78
2022/01/01 00:35:56;;;;;;;61.70;8.32;;;9.30;99.90;;;;;;5023011;28;20025;-77
2022/01/01 00:38:22;;;;;;;73.15;9.20;;;9.30;99.90;;;;;;5032806;28;20025;-77
2022/01/01 00:40:48;;;;;;;76.72;9.57;;;9.30;99.90;;;;;;5025737;28;20082;-77
2022/01/01 00:43:13;;;;;;;88.03;10.02;;;9.30;99.90;;;;;;5023443;28;20093;-77
2022/01/01 00:45:39;;;;;;;86.80;14.23;;;9.30;99.90;;;;;;5020792;28;20060;-77
2022/01/01 00:48:05;;;;;;;106.80;12.77;;;9.30;99.90;;;;;;5027254;28;20033;-77
2022/01/01 00:50:30;;;;;;;78.40;11.15;;;9.20;99.90;;;;;;5028022;28;20090;-77
2022/01/01 00:52:58;;;;;;;70.45;8.35;;;9.20;99.90;;;;;;5027095;28;20474;-77
2022/01/01 00:55:24;;;;;;;72.40;8.10;;;9.20;99.90;;;;;;5026556;28;20034;-77
2022/01/01 00:57:49;;;;;;;67.68;10.27;;;9.10;99.90;;;;;;5032205;28;20037;-78
2022/01/01 01:00:15;;;;;;;85.93;15.68;;;9.10;99.90;;;;;;5029147;28;20022;-77
2022/01/01 01:02:41;;;;;;;88.55;13.32;;;9.10;99.90;;;;;;5033328;28;20033;-77
2022/01/01 01:05:07;;;;;;;80.80;11.77;;;9.00;99.90;;;;;;5026800;28;20444;-77
2022/01/01 01:07:33;;;;;;;93.70;20.08;;;8.90;99.90;;;;;;5027226;28;20049;-77
2022/01/01 01:09:58;;;;;;;66.50;10.18;;;9.00;99.90;;;;;;5034403;28;20052;-77
2022/01/01 01:12:27;;;;;;;83.43;10.65;;;8.90;99.90;;;;;;5034505;28;20033;-76
2022/01/01 01:14:54;;;;;;;88.80;10.18;;;9.00;99.90;;;;;;5032630;28;20025;-77
2022/01/01 01:17:20;;;;;;;92.15;10.38;;;8.90;99.90;;;;;;5025952;28;20041;-77
2022/01/01 01:19:46;;;;;;;81.47;8.68;;;8.90;99.90;;;;;;5030942;28;20026;-77
2022/01/01 01:22:11;;;;;;;84.47;9.43;;;8.90;99.90;;;;;;5027938;28;20040;-77
2022/01/01 01:24:39;;;;;;;71.03;9.63;;;8.80;99.90;;;;;;5022776;28;20029;-77
2022/01/01 01:27:06;;;;;;;86.65;10.05;;;8.80;99.90;;;;;;5022812;28;20037;-77
2022/01/01 01:29:33;;;;;;;86.53;8.95;;;8.70;99.90;;;;;;5028440;28;20029;-78
2022/01/01 01:31:59;;;;;;;94.38;11.63;;;8.70;99.90;;;;;;5027787;28;20076;-77
2022/01/01 01:34:24;;;;;;;91.68;11.98;;;8.60;99.90;;;;;;5024817;28;20037;-77
2022/01/01 01:36:50;;;;;;;86.95;11.07;;;8.60;99.90;;;;;;5024767;28;20432;-77
2022/01/01 01:39:15;;;;;;;102.63;11.23;;;8.70;99.90;;;;;;5022320;28;20029;-77
2022/01/01 01:41:43;;;;;;;91.25;10.57;;;8.70;99.90;;;;;;5024769;28;20037;-77
2022/01/01 01:44:28;;;;;;;89.07;12.65;;;8.70;99.90;;;;;;5019525;28;20030;-77
2022/01/01 01:46:54;;;;;;;82.63;11.02;;;8.70;99.90;;;;;;5024920;28;20032;-76
2022/01/01 01:49:19;;;;;;;102.30;10.60;;;8.70;99.90;;;;;;5025341;28;20018;-76
2022/01/01 01:51:45;;;;;;;100.38;11.25;;;8.70;99.90;;;;;;5019910;28;20036;-76
2022/01/01 01:54:13;;;;;;;94.70;11.38;;;8.70;99.90;;;;;;5030291;28;20060;-77
2022/01/01 01:56:39;;;;;;;95.38;12.38;;;8.70;99.90;;;;;;5030930;28;20087;-73
2022/01/01 01:59:04;;;;;;;86.22;12.10;;;8.70;99.90;;;;;;5031303;28;20022;-74
2022/01/01 02:01:30;;;;;;;93.30;13.80;;;8.70;99.90;;;;;;5022622;28;20026;-74
2022/01/01 02:03:57;;;;;;;78.70;11.95;;;8.70;99.90;;;;;;5012557;28;20018;-74
2022/01/01 02:06:24;;;;;;;112.78;14.23;;;8.70;99.90;;;;;;5014132;28;20022;-74
2022/01/01 02:08:51;;;;;;;123.57;14.70;;;8.60;99.90;;;;;;5013454;28;20025;-73
2022/01/01 02:11:18;;;;;;;103.57;14.35;;;8.70;99.90;;;;;;5013612;28;20381;-74
2022/01/01 02:18:48;;;;;;;116.05;24.70;;;8.80;99.90;;;;;;5013403;28;20028;-73
2022/01/01 02:21:15;;;;;;;85.70;12.95;;;8.90;99.90;;;;;;5013371;28;20029;-73
2022/01/01 02:23:42;;;;;;;94.22;11.90;;;8.90;99.90;;;;;;5012364;28;20500;-74
2022/01/01 02:26:11;;;;;;;101.53;12.45;;;8.90;99.90;;;;;;5013448;28;20049;-74
2022/01/01 02:28:39;;;;;;;91.75;11.55;;;8.80;99.90;;;;;;5011827;28;20018;-74
2022/01/01 02:31:05;;;;;;;91.47;10.40;;;8.80;99.90;;;;;;5012132;28;20445;-74
2022/01/01 02:33:32;;;;;;;92.25;12.13;;;8.70;99.90;;;;;;5030861;28;20041;-73
2022/01/01 02:35:58;;;;;;;84.63;10.52;;;8.70;99.90;;;;;;5031546;28;20052;-74
2022/01/01 02:38:23;;;;;;;100.15;11.05;;;8.70;99.90;;;;;;5033122;28;20396;-74
2022/01/01 02:40:49;;;;;;;85.93;11.77;;;8.70;99.90;;;;;;5029599;28;20088;-73
2022/01/01 02:43:16;;;;;;;92.20;10.52;;;8.70;99.90;;;;;;5032969;28;20025;-74
2022/01/01 02:45:42;;;;;;;101.07;12.27;;;8.60;99.90;;;;;;5030554;28;20148;-73
2022/01/01 02:48:07;;;;;;;87.28;11.18;;;8.60;99.90;;;;;;5016867;28;20505;-73
2022/01/01 02:50:33;;;;;;;88.25;10.70;;;8.60;99.90;;;;;;5028606;28;20030;-73
2022/01/01 02:52:58;;;;;;;94.00;10.95;;;8.60;99.90;;;;;;5032452;28;20029;-74
2022/01/01 02:55:24;;;;;;;86.88;11.00;;;8.60;99.90;;;;;;5027868;28;20488;-73
2022/01/01 02:57:49;;;;;;;91.15;12.63;;;8.70;99.90;;;;;;5013162;28;20037;-74
2022/01/01 03:00:15;;;;;;;93.32;11.45;;;8.60;99.90;;;;;;5013715;28;20030;-74
2022/01/01 03:02:41;;;;;;;98.03;10.77;;;8.60;99.90;;;;;;5015157;28;20096;-74
2022/01/01 03:05:07;;;;;;;75.53;10.65;;;8.60;99.90;;;;;;5014894;28;20073;-73
2022/01/01 03:07:35;;;;;;;93.95;11.07;;;8.60;99.90;;;;;;5014366;28;20022;-74
2022/01/01 03:10:01;;;;;;;76.90;10.48;;;8.60;99.90;;;;;;5033132;28;20024;-74
2022/01/01 03:12:26;;;;;;;93.63;9.13;;;8.60;99.90;;;;;;5032686;28;20481;-74
2022/01/01 03:14:52;;;;;;;82.70;11.35;;;8.60;99.90;;;;;;5033071;28;20026;-73
2022/01/01 03:17:17;;;;;;;80.25;10.45;;;8.70;99.90;;;;;;5032751;28;20112;-74
2022/01/01 03:19:43;;;;;;;98.40;11.57;;;8.60;99.90;;;;;;5032523;28;20477;-74
2022/01/01 03:22:09;;;;;;;98.43;11.32;;;8.60;99.90;;;;;;5019020;28;20080;-74
2022/01/01 03:24:34;;;;;;;103.75;10.60;;;8.60;99.90;;;;;;5013080;28;20022;-74
2022/01/01 03:27:01;;;;;;;101.38;11.02;;;8.60;99.90;;;;;;5012927;28;20033;-74
2022/01/01 03:29:30;;;;;;;81.20;11.30;;;8.60;99.90;;;;;;5011674;28;20433;-74
2022/01/01 03:31:55;;;;;;;87.28;11.27;;;8.60;99.90;;;;;;5012619;28;20028;-73
2022/01/01 03:34:21;;;;;;;103.50;11.85;;;8.70;99.90;;;;;;5015055;28;20065;-74
2022/01/01 03:36:47;;;;;;;88.43;12.20;;;8.60;99.90;;;;;;5011686;28;20084;-73
2022/01/01 03:39:12;;;;;;;96.38;10.82;;;8.70;99.90;;;;;;5015053;28;20037;-74
2022/01/01 03:41:38;;;;;;;63.95;9.88;;;8.70;99.90;;;;;;5016713;28;20394;-74
2022/01/01 03:44:04;;;;;;;86.45;10.80;;;8.70;99.90;;;;;;5012472;28;20022;-74
2022/01/01 03:46:29;;;;;;;90.68;12.50;;;8.70;99.90;;;;;;5019748;28;20032;-74
2022/01/01 03:48:55;;;;;;;78.32;9.90;;;8.80;99.90;;;;;;5034115;28;20028;-74
2022/01/01 03:51:20;;;;;;;119.95;11.57;;;8.80;99.90;;;;;;5034816;28;20060;-74
2022/01/01 03:53:46;;;;;;;92.88;10.82;;;8.80;99.90;;;;;;5018289;28;20393;-74
2022/01/01 03:56:11;;;;;;;83.00;10.55;;;8.80;99.90;;;;;;5023171;28;20037;-74
2022/01/01 03:58:38;;;;;;;87.75;11.63;;;8.80;99.90;;;;;;5033973;28;20033;-74
2022/01/01 04:01:03;;;;;;;79.68;10.25;;;8.80;99.90;;;;;;5035852;28;20014;-74
2022/01/01 04:03:29;;;;;;;91.20;11.75;;;8.90;99.90;;;;;;5019486;28;20034;-73
2022/01/01 04:05:54;;;;;;;59.47;10.13;;;8.90;99.90;;;;;;5016218;28;20535;-74
2022/01/01 04:08:20;;;;;;;98.05;10.52;;;8.90;99.90;;;;;;5017646;28;20018;-73
2022/01/01 04:10:45;;;;;;;87.60;13.65;;;9.00;99.90;;;;;;5014545;28;20022;-73
2022/01/01 04:13:11;;;;;;;92.10;12.25;;;9.00;99.90;;;;;;5029240;28;20053;-74
2022/01/01 04:15:41;;;;;;;92.35;10.48;;;9.00;99.90;;;;;;5035590;28;20029;-74
2022/01/01 04:18:12;;;;;;;84.85;10.63;;;9.00;99.90;;;;;;5030284;28;20101;-74
2022/01/01 04:20:38;;;;;;;90.93;11.75;;;8.90;99.90;;;;;;5033840;28;20052;-73
2022/01/01 04:23:08;;;;;;;83.15;8.85;;;8.90;99.90;;;;;;5030538;28;20056;-74
2022/01/01 04:25:34;;;;;;;78.03;10.07;;;8.90;99.90;;;;;;5014370;28;20071;-74
2022/01/01 04:28:00;;;;;;;85.55;10.35;;;8.90;99.90;;;;;;5017826;28;20030;-74
2022/01/01 04:30:28;;;;;;;86.00;10.88;;;8.90;99.90;;;;;;5017283;28;20025;-74
2022/01/01 04:32:57;;;;;;;80.85;10.35;;;8.90;99.90;;;;;;5032611;28;20028;-74
2022/01/01 04:35:23;;;;;;;89.32;11.07;;;8.90;99.90;;;;;;5035168;28;20033;-74
2022/01/01 04:37:49;;;;;;;100.07;11.30;;;9.00;99.90;;;;;;5033158;28;20400;-74
2022/01/01 04:40:14;;;;;;;91.55;9.55;;;8.90;99.90;;;;;;5033849;28;20031;-74
2022/01/01 04:42:40;;;;;;;100.45;12.38;;;9.00;99.90;;;;;;5027003;28;20036;-74
2022/01/01 04:45:06;;;;;;;104.30;11.93;;;8.90;99.90;;;;;;5033780;28;20117;-74
2022/01/01 04:47:32;;;;;;;83.82;10.23;;;8.90;99.90;;;;;;5030249;28;20076;-74
2022/01/01 04:49:57;;;;;;;81.82;11.75;;;9.00;99.90;;;;;;5034924;28;20029;-74
2022/01/01 04:52:23;;;;;;;84.85;10.75;;;8.90;99.90;;;;;;5031088;28;20519;-74
2022/01/01 04:54:48;;;;;;;82.10;10.38;;;8.90;99.90;;;;;;5022887;28;20029;-74
2022/01/01 04:57:14;;;;;;;76.15;10.25;;;8.90;99.90;;;;;;5027587;28;20555;-74
2022/01/01 04:59:41;;;;;;;63.08;10.60;;;8.90;99.90;;;;;;5034440;28;20109;-74
2022/01/01 05:02:07;;;;;;;80.57;10.40;;;8.90;99.90;;;;;;5034523;28;20022;-74
2022/01/01 05:04:33;;;;;;;87.63;9.45;;;8.90;99.90;;;;;;5030128;28;20028;-74
2022/01/01 05:06:59;;;;;;;97.10;11.05;;;8.80;99.90;;;;;;5024536;28;20022;-74
2022/01/01 05:09:27;;;;;;;76.93;9.77;;;8.80;99.90;;;;;;5029312;28;20405;-74
2022/01/01 05:11:53;;;;;;;96.63;11.27;;;8.80;99.90;;;;;;5014514;28;20045;-74
2022/01/01 05:14:19;;;;;;;74.10;10.05;;;8.80;99.90;;;;;;5016157;28;20021;-74
2022/01/01 05:16:45;;;;;;;88.90;10.13;;;8.80;99.90;;;;;;5017046;28;20398;-74
2022/01/01 05:19:11;;;;;;;77.05;11.57;;;8.90;99.90;;;;;;5024028;28;20037;-74
2022/01/01 05:21:36;;;;;;;104.53;11.07;;;8.80;99.90;;;;;;5020932;28;20480;-74
2022/01/01 05:24:05;;;;;;;92.78;9.80;;;8.80;99.90;;;;;;5034226;28;20030;-74
2022/01/01 05:26:31;;;;;;;85.90;14.02;;;8.90;99.90;;;;;;5014476;28;20029;-74
2022/01/01 05:28:57;;;;;;;89.93;11.05;;;8.90;99.90;;;;;;5027046;28;20029;-73
2022/01/01 05:31:23;;;;;;;73.65;10.60;;;8.90;99.90;;;;;;5025933;28;20022;-74
2022/01/01 05:33:52;;;;;;;107.03;11.23;;;8.90;99.90;;;;;;5028603;28;20032;-74
2022/01/01 05:36:18;;;;;;;69.90;9.27;;;8.90;99.90;;;;;;5014436;28;20030;-74
2022/01/01 05:38:45;;;;;;;82.70;10.43;;;8.90;99.90;;;;;;5022330;28;20025;-74
2022/01/01 05:41:10;;;;;;;75.43;9.75;;;8.80;99.90;;;;;;5020886;28;20033;-74
2022/01/01 05:43:36;;;;;;;81.88;10.25;;;8.80;99.90;;;;;;5014011;28;20022;-74
2022/01/01 05:46:03;;;;;;;96.15;13.30;;;8.80;99.90;;;;;;5012802;28;20088;-74
2022/01/01 05:48:29;;;;;;;70.05;9.88;;;8.80;99.90;;;;;;5016201;28;20354;-74
2022/01/01 05:50:55;;;;;;;110.22;14.77;;;8.80;99.90;;;;;;5022464;28;20473;-74
2022/01/01 05:53:20;;;;;;;91.90;10.48;;;8.80;99.90;;;;;;5028595;28;20041;-74
2022/01/01 05:55:47;;;;;;;73.53;10.43;;;8.70;99.90;;;;;;5015792;28;20034;-74
2022/01/01 05:58:13;;;;;;;82.57;9.90;;;8.70;99.90;;;;;;5024883;28;20041;-74
2022/01/01 06:00:39;;;;;;;77.95;11.93;;;8.70;99.90;;;;;;5024054;28;20026;-74
2022/01/01 06:03:04;;;;;;;74.47;10.70;;;8.70;99.90;;;;;;5020815;28;20030;-74
2022/01/01 06:05:31;;;;;;;78.57;10.60;;;8.70;99.90;;;;;;5029174;28;20428;-74
2022/01/01 06:07:57;;;;;;;74.55;9.48;;;8.70;99.90;;;;;;5014138;28;20486;-74
2022/01/01 06:10:24;;;;;;;71.10;10.73;;;8.60;99.90;;;;;;5012277;28;20115;-74
2022/01/01 06:12:49;;;;;;;88.60;10.98;;;8.70;99.90;;;;;;5045439;23;20049;-72
2022/01/01 06:15:15;;;;;;;77.53;9.50;;;8.70;99.90;;;;;;5033316;28;20014;-72
2022/01/01 06:17:41;;;;;;;79.20;11.30;;;8.70;99.90;;;;;;5032870;28;20100;-72
2022/01/01 06:20:07;;;;;;;78.53;9.07;;;8.60;99.90;;;;;;5025550;28;20021;-72
2022/01/01 06:22:32;;;;;;;103.28;11.00;;;8.70;99.90;;;;;;5023260;28;20053;-72
2022/01/01 06:24:58;;;;;;;79.88;9.35;;;8.70;99.90;;;;;;5021738;28;20029;-72
2022/01/01 06:27:24;;;;;;;81.28;10.60;;;8.60;99.90;;;;;;5029921;28;20113;-72
2022/01/01 06:29:50;;;;;;;101.32;11.73;;;8.60;99.90;;;;;;5021737;28;20478;-71
2022/01/01 06:32:16;;;;;;;74.43;10.20;;;8.70;99.90;;;;;;5011182;28;20049;-72
2022/01/01 06:34:41;;;;;;;83.43;10.68;;;8.70;99.90;;;;;;5032112;28;20083;-72
2022/01/01 06:37:07;;;;;;;92.93;10.60;;;8.60;99.90;;;;;;5030980;28;20432;-72
2022/01/01 06:39:33;;;;;;;97.72;11.13;;;8.60;99.90;;;;;;5019749;28;20032;-72
2022/01/01 06:41:59;;;;;;;97.90;11.00;;;8.70;99.90;;;;;;5012926;28;20030;-72
2022/01/01 06:44:24;;;;;;;85.10;11.63;;;8.70;99.90;;;;;;5013835;28;20065;-71
2022/01/01 06:46:50;;;;;;;111.90;14.48;;;8.70;99.90;;;;;;5013306;28;20038;-72
2022/01/01 06:49:15;;;;;;;79.05;11.23;;;8.70;99.90;;;;;;5013371;28;20018;-72
2022/01/01 06:51:41;;;;;;;99.03;11.95;;;8.70;99.90;;;;;;5013185;28;20026;-72
2022/01/01 06:54:07;;;;;;;93.68;11.68;;;8.70;99.90;;;;;;5012683;28;20030;-72
2022/01/01 06:56:32;;;;;;;84.40;13.30;;;8.70;99.90;;;;;;5013629;28;20026;-72
2022/01/01 06:58:58;;;;;;;94.18;11.20;;;8.70;99.90;;;;;;5013466;28;20105;-72
2022/01/01 07:01:23;;;;;;;94.28;12.50;;;8.80;99.90;;;;;;5013088;28;20105;-72
2022/01/01 07:03:49;;;;;;;91.68;14.00;;;8.80;99.90;;;;;;5013110;28;20018;-72
2022/01/01 07:06:14;;;;;;;93.20;12.82;;;8.80;99.90;;;;;;5013121;28;20026;-71
2022/01/01 07:08:40;;;;;;;107.63;12.93;;;8.80;99.90;;;;;;5012721;28;20073;-72
2022/01/01 07:11:06;;;;;;;69.93;10.25;;;8.80;99.90;;;;;;5013072;28;20034;-71
2022/01/01 07:13:32;;;;;;;89.57;12.98;;;8.80;99.90;;;;;;5013041;28;20468;-71
2022/01/01 07:15:58;;;;;;;94.78;12.52;;;8.80;99.90;;;;;;5013094;28;20030;-71
2022/01/01 07:18:23;;;;;;;72.65;11.52;;;8.80;99.90;;;;;;5012960;28;20461;-71
2022/01/01 07:20:49;;;;;;;99.85;12.45;;;8.80;99.90;;;;;;5012675;28;20030;-72
2022/01/01 07:23:15;;;;;;;96.13;11.98;;;8.80;99.90;;;;;;5016356;28;20097;-72
2022/01/01 07:25:41;;;;;;;89.18;11.40;;;8.80;99.90;;;;;;5016702;28;20109;-72
2022/01/01 07:28:07;;;;;;;91.45;13.18;;;8.80;99.90;;;;;;5017227;28;20037;-71
2022/01/01 07:30:33;;;;;;;99.78;14.05;;;8.80;99.90;;;;;;5016814;28;20014;-71
2022/01/01 07:32:58;;;;;;;76.88;13.73;;;8.80;99.90;;;;;;5016234;28;20374;-72
2022/01/01 07:35:24;;;;;;;104.80;16.67;;;8.90;99.90;;;;;;5017083;28;20026;-72
2022/01/01 07:37:50;;;;;;;84.85;11.30;;;8.90;99.90;;;;;;5016476;28;20113;-71
2022/01/01 07:40:17;;;;;;;119.93;13.98;;;8.90;99.90;;;;;;5016463;28;20056;-71
2022/01/01 07:42:44;;;;;;;91.40;13.90;;;8.80;99.90;;;;;;5015897;28;20068;-72
2022/01/01 07:45:11;;;;;;;68.57;12.32;;;8.80;99.90;;;;;;5016352;28;20470;-71
2022/01/01 07:47:36;;;;;;;94.10;10.05;;;8.80;99.90;;;;;;5016304;28;20026;-71
2022/01/01 07:50:03;;;;;;;105.68;13.50;;;8.90;99.90;;;;;;5016270;28;20036;-72
2022/01/01 07:52:29;;;;;;;110.97;15.27;;;8.80;99.90;;;;;;5015679;28;20045;-72
2022/01/01 07:54:54;;;;;;;93.75;12.55;;;8.70;99.90;;;;;;5016145;28;20026;-72
2022/01/01 07:57:20;;;;;;;100.30;13.30;;;8.70;99.90;;;;;;5016429;28;20058;-71
2022/01/01 07:59:45;;;;;;;107.00;14.35;;;8.70;99.90;;;;;;5016041;28;20030;-71
2022/01/01 08:02:11;;;;;;;98.13;17.85;;;8.60;99.90;;;;;;5015746;28;20080;-72
2022/01/01 08:04:36;;;;;;;129.98;16.45;;;8.40;99.90;;;;;;5015940;28;20021;-72
2022/01/01 08:07:02;;;;;;;102.18;17.25;;;8.30;99.90;;;;;;5016190;28;20393;-71
2022/01/01 08:09:28;;;;;;;93.85;16.02;;;8.30;99.90;;;;;;5015650;28;20030;-72
2022/01/01 08:11:54;;;;;;;93.75;18.98;;;8.20;99.90;;;;;;5035432;28;20097;-71
2022/01/01 08:14:20;;;;;;;113.18;20.08;;;8.10;99.90;;;;;;5023636;28;20026;-71
2022/01/01 08:17:03;;;;;;;128.32;22.83;;;8.10;99.90;;;;;;5015254;28;20108;-72
2022/01/01 08:19:29;;;;;;;114.97;21.17;;;8.00;99.90;;;;;;5015931;28;20026;-72
2022/01/01 08:21:56;;;;;;;118.68;22.45;;;8.00;99.90;;;;;;5015807;28;20033;-72
2022/01/01 08:24:23;;;;;;;109.10;21.77;;;7.90;99.90;;;;;;5026427;28;20409;-73
2022/01/01 08:26:49;;;;;;;98.68;21.10;;;7.90;99.90;;;;;;5014295;28;20076;-72
2022/01/01 08:29:15;;;;;;;116.65;22.50;;;8.00;99.90;;;;;;5015498;28;20029;-72
2022/01/01 08:31:41;;;;;;;111.70;22.48;;;8.00;99.90;;;;;;5030269;28;20152;-72
2022/01/01 08:34:07;;;;;;;99.25;22.05;;;7.90;99.90;;;;;;5034540;28;20053;-72
2022/01/01 08:36:32;;;;;;;85.68;23.05;;;7.90;99.90;;;;;;5029362;28;20034;-72
2022/01/01 08:38:58;;;;;;;88.88;22.00;;;7.90;99.90;;;;;;5015652;28;20018;-73
2022/01/01 08:41:25;;;;;;;111.75;23.88;;;7.80;99.90;;;;;;5017811;28;20032;-73
2022/01/01 08:43:50;;;;;;;97.05;23.27;;;7.80;99.90;;;;;;5014642;28;20033;-73
2022/01/01 08:46:16;;;;;;;84.68;23.45;;;7.80;99.90;;;;;;5021055;28;20029;-74
2022/01/01 08:48:42;;;;;;;105.28;24.52;;;7.80;99.90;;;;;;5031136;28;20397;-73
2022/01/01 08:51:28;;;;;;;101.07;25.90;;;7.90;99.90;;;;;;5022363;28;20440;-75
2022/01/01 08:53:53;;;;;;;78.88;21.70;;;7.90;99.90;;;;;;5026506;28;20025;-73
2022/01/01 08:56:19;;;;;;;103.97;25.02;;;8.00;99.90;;;;;;5025803;28;20041;-73
2022/01/01 08:58:46;;;;;;;84.57;22.50;;;8.00;99.90;;;;;;5020643;28;20033;-74
2022/01/01 09:01:11;;;;;;;90.28;22.80;;;8.00;99.90;;;;;;5021534;28;20026;-73
2022/01/01 09:03:37;;;;;;;95.90;22.08;;;8.00;99.90;;;;;;5024913;28;20076;-73
2022/01/01 09:06:04;;;;;;;94.03;21.15;;;8.00;99.90;;;;;;5010125;28;20021;-73
2022/01/01 09:08:32;;;;;;;95.93;20.70;;;8.10;99.90;;;;;;5025050;28;20029;-73
2022/01/01 09:10:57;;;;;;;97.30;22.70;;;8.10;99.90;;;;;;5025322;28;20029;-73
2022/01/01 09:13:23;;;;;;;100.60;21.52;;;8.10;99.90;;;;;;5022347;28;20112;-73
2022/01/01 09:15:49;;;;;;;98.20;22.05;;;8.20;99.90;;;;;;5021192;28;20030;-74
2022/01/01 09:18:14;;;;;;;89.97;19.58;;;8.10;99.90;;;;;;5025148;28;20044;-73
2022/01/01 09:20:40;;;;;;;85.40;20.75;;;8.10;99.90;;;;;;5022621;28;20075;-73
2022/01/01 09:23:06;;;;;;;131.02;20.27;;;8.10;99.90;;;;;;5025471;28;20026;-73
2022/01/01 09:25:31;;;;;;;77.63;21.35;;;8.10;99.90;;;;;;5023365;28;20040;-73
2022/01/01 09:27:57;;;;;;;85.35;19.70;;;8.20;99.90;;;;;;5019696;28;20499;-73
2022/01/01 09:30:23;;;;;;;78.22;15.60;;;8.20;99.90;;;;;;5023071;28;20025;-73
2022/01/01 09:32:49;;;;;;;104.72;17.55;;;8.30;99.90;;;;;;5022959;28;20026;-74
2022/01/01 09:35:16;;;;;;;91.65;18.02;;;8.40;99.90;;;;;;5024647;28;20033;-73
2022/01/01 09:37:42;;;;;;;97.18;17.40;;;8.40;99.90;;;;;;5003719;28;20036;-73
2022/01/01 09:40:08;;;;;;;55.97;16.25;;;8.50;99.90;;;;;;5019369;28;20104;-72
2022/01/01 09:42:34;;;;;;;86.20;17.75;;;8.50;99.90;;;;;;5021149;28;20036;-72
2022/01/01 09:45:01;;;;;;;81.90;17.70;;;8.60;99.90;;;;;;5021800;28;20315;-73
2022/01/01 09:47:27;;;;;;;95.97;20.38;;;8.60;99.90;;;;;;5026511;28;20025;-73
2022/01/01 09:49:53;;;;;;;126.35;18.83;;;8.60;99.90;;;;;;5019677;28;20049;-73
2022/01/01 09:52:19;;;;;;;105.82;17.73;;;8.60;99.90;;;;;;5025538;28;20481;-73
2022/01/01 09:54:44;;;;;;;83.82;16.10;;;8.50;99.90;;;;;;5022158;28;20041;-73
2022/01/01 09:57:10;;;;;;;70.22;15.35;;;8.50;99.90;;;;;;5024761;28;20028;-73
2022/01/01 09:59:38;;;;;;;110.90;15.13;;;8.60;99.90;;;;;;5024405;28;20462;-73
2022/01/01 10:02:04;;;;;;;74.07;16.33;;;8.60;99.90;;;;;;5005249;28;20034;-73
2022/01/01 10:04:44;;;;;;;111.55;19.75;;;8.50;99.90;;;;;;5018079;28;20036;-73
2022/01/01 10:07:11;;;;;;;101.80;19.13;;;8.60;99.90;;;;;;5019204;28;20026;-73
2022/01/01 10:09:37;;;;;;;188.00;20.38;;;8.50;99.90;;;;;;5023024;28;20045;-73
2022/01/01 10:12:09;;;;;;;52.75;15.95;;;8.50;99.90;;;;;;5022307;28;20132;-73
2022/01/01 10:14:36;;;;;;;113.75;20.58;;;8.40;99.90;;;;;;5022436;28;20048;-74
2022/01/01 10:17:23;;;;;;;79.13;16.40;;;8.30;99.90;;;;;;5021840;28;20037;-73
2022/01/01 10:19:52;;;;;;;86.70;16.85;;;8.40;99.90;;;;;;5024188;28;20393;-74
2022/01/01 10:22:19;;;;;;;157.75;19.70;;;8.40;99.90;;;;;;5020433;28;20029;-73
2022/01/01 10:27:43;;;;;;;70.85;17.25;;;8.30;99.90;;;;;;5020066;28;20504;-73
2022/01/01 10:30:16;;;;;;;98.68;19.83;;;8.40;99.90;;;;;;5024304;28;20022;-73
2022/01/01 10:33:00;;;;;;;;;;;8.30;99.90;;;;;;5019758;28;20029;-73
2022/01/01 10:35:27;;;;;;;67.28;17.95;;;8.30;99.90;;;;;;5022023;28;20316;-73
2022/01/01 10:37:53;;;;;;;69.90;17.98;;;8.40;99.90;;;;;;5024497;28;20083;-73
2022/01/01 10:40:26;;;;;;;60.88;16.73;;;8.40;99.90;;;;;;5023861;28;20030;-73
2022/01/01 10:42:52;;;;;;;63.00;17.83;;;8.40;99.90;;;;;;5019696;28;20128;-72
2022/01/01 10:45:33;;;;;;;66.88;17.42;;;8.40;99.90;;;;;;5019338;28;20489;-73
2022/01/01 10:51:10;;;;;;;55.65;19.52;;;8.50;99.90;;;;;;5021429;28;20029;-73
2022/01/01 10:53:36;;;;;;;59.50;18.38;;;8.50;99.90;;;;;;5022451;28;20109;-72
2022/01/01 10:56:15;;;;;;;70.57;19.77;;;8.50;99.90;;;;;;5024551;28;20041;-73
2022/01/01 10:58:42;;;;;;;67.75;18.75;;;8.50;99.90;;;;;;5023788;28;20036;-73
2022/01/01 11:01:08;;;;;;;70.93;20.80;;;8.50;99.90;;;;;;5021723;28;20025;-73
2022/01/01 11:03:40;;;;;;;78.38;20.25;;;8.50;99.90;;;;;;5028145;28;20034;-73
2022/01/01 11:06:10;;;;;;;83.28;21.90;;;8.40;99.90;;;;;;5024882;28;20480;-72
2022/01/01 11:08:39;;;;;;;71.85;21.48;;;8.40;99.90;;;;;;5025437;28;20037;-73
2022/01/01 11:11:04;;;;;;;98.90;24.38;;;8.30;99.90;;;;;;5027999;28;20486;-73
2022/01/01 11:13:34;;;;;;;118.75;27.90;;;8.40;99.90;;;;;;5025656;28;20052;-73
2022/01/01 11:16:02;;;;;;;106.13;26.58;;;8.30;99.90;;;;;;5026860;28;20033;-72
2022/01/01 11:18:27;;;;;;;114.95;27.92;;;8.40;99.90;;;;;;5022162;28;20389;-73
2022/01/01 11:20:53;;;;;;;132.32;31.25;;;8.40;99.90;;;;;;5026968;28;20033;-73
2022/01/01 11:23:20;;;;;;;125.28;29.38;;;8.40;99.90;;;;;;5024891;28;20450;-73
2022/01/01 11:25:46;;;;;;;122.93;30.25;;;8.40;99.90;;;;;;5024074;28;20440;-73
2022/01/01 11:28:17;;;;;;;98.43;27.73;;;8.40;99.90;;;;;;5026450;28;20033;-72
2022/01/01 11:30:56;;;;;;;111.15;27.90;;;8.50;99.90;;;;;;5024111;28;20033;-73
2022/01/01 11:33:34;;;;;;;112.97;30.52;;;8.50;99.90;;;;;;5020428;28;20145;-74
2022/01/01 11:36:00;;;;;;;96.75;25.70;;;8.50;99.90;;;;;;5024899;28;20036;-73
2022/01/01 11:38:28;;;;;;;98.82;25.95;;;8.50;99.90;;;;;;5027534;28;20040;-73
2022/01/01 11:41:07;;;;;;;90.47;25.35;;;8.50;99.90;;;;;;5027278;28;20032;-72
2022/01/01 11:43:53;;;;;;;97.30;24.50;;;8.50;99.90;;;;;;5022134;28;20034;-72
2022/01/01 11:46:29;;;;;;;90.45;24.70;;;8.60;99.90;;;;;;5028684;28;20052;-73
2022/01/01 11:48:56;;;;;;;100.88;24.02;;;8.60;99.90;;;;;;5017169;28;20051;-73
2022/01/01 11:51:23;;;;;;;89.07;23.48;;;8.60;99.90;;;;;;5021708;28;20033;-73
2022/01/01 11:54:09;;;;;;;94.32;23.50;;;8.70;99.90;;;;;;5023059;28;20494;-73
2022/01/01 11:56:49;;;;;;;87.50;24.42;;;8.70;99.90;;;;;;5024735;28;20033;-73
2022/01/01 11:59:27;;;;;;;95.65;26.55;;;8.70;99.90;;;;;;5026600;28;20539;-73
2022/01/01 12:02:02;;;;;;;90.50;24.70;;;8.80;99.90;;;;;;5023409;28;20511;-73
2022/01/01 12:04:38;;;;;;;109.53;25.70;;;8.90;99.90;;;;;;5026676;28;20033;-73
2022/01/01 12:07:16;;;;;;;174.32;29.25;;;9.00;99.90;;;;;;5019863;28;20032;-72
2022/01/01 12:10:03;;;;;;;120.15;26.08;;;9.00;99.90;;;;;;5021471;28;20486;-73
2022/01/01 12:12:38;;;;;;;92.57;22.55;;;9.00;99.90;;;;;;5079527;23;20148;-74
2022/01/01 12:15:06;;;;;;;126.93;26.17;;;9.10;99.90;;;;;;5024439;28;20083;-74
2022/01/01 12:17:48;;;;;;;160.48;25.40;;;9.10;99.90;;;;;;5024699;28;20072;-74
2022/01/01 12:20:15;;;;;;;274.58;31.02;;;9.10;99.90;;;;;;5027400;28;20060;-75
2022/01/01 12:22:46;;;;;;;145.02;26.17;;;9.10;99.90;;;;;;5021817;28;20046;-74
2022/01/01 12:25:20;;;;;;;152.18;28.17;;;9.10;99.90;;;;;;5020816;28;20021;-74
2022/01/01 12:27:48;;;;;;;103.75;27.13;;;9.20;99.90;;;;;;5026195;28;20026;-74
2022/01/01 12:30:50;;;;;;;94.55;25.83;;;9.20;99.90;;;;;;5025685;28;20025;-75
2022/01/01 12:33:27;;;;;;;107.40;27.83;;;9.20;99.90;;;;;;4998657;28;20050;-79
2022/01/01 12:35:57;;;;;;;82.15;24.63;;;9.20;99.90;;;;;;5041626;28;20555;-79
2022/01/01 12:38:29;;;;;;;78.68;24.13;;;9.20;99.90;;;;;;5039550;28;20117;-78
2022/01/01 12:41:04;;;;;;;92.47;24.98;;;9.20;99.90;;;;;;5039885;28;20030;-78
2022/01/01 12:43:32;;;;;;;74.38;22.70;;;9.20;99.90;;;;;;5028495;28;20057;-78
2022/01/01 12:45:59;;;;;;;62.40;22.52;;;9.20;99.90;;;;;;5028659;28;20022;-78
2022/01/01 12:48:27;;;;;;;64.05;20.38;;;9.20;99.90;;;;;;5033659;28;20116;-78